Riceville, TN

10:08 PM EDT on September 15, 2014 (GMT -0400)
Dalton Municipal | Change Station
CLOSE
Current Station
Airport
Location: Dalton,
Elevation: 709 ft
Nearby Weather Stations

Elev 709 ft 34.72 °N, 84.87 °W | Updated 13 minutes ago

Rain
Rain
70 °F
Feels Like 70 °F
N
0
Wind Variable Wind from North

Today
High -- | Low -- °F
--% Chance of Precip.
Yesterday
High -- | Low -- °F
Precip. -- in
7:21 AM 7:45 PM
Waning Gibbous, 50% visible
Pressure 30.13 in
Visibility 7.0 miles
Clouds Scattered Clouds 8000 ft
Dew Point 70 °F
Humidity 100%
Rainfall 0.00 in
Snow Depth Not available.
UV 0 out of 12
Pollen 7.10 out of 12
Air Quality Not available.
Flu Activity Not available.
METAR KDNN 160155Z AUTO 00000KT 7SM SCT080 21/21 A3013 RMK AO2 LTG DSNT NW

More Conditions Fewer Conditions

Pressure 30.13 in
Visibility 7.0 miles
Clouds Scattered Clouds 8000 ft
Dew Point 70 °F
Humidity 100%
Rainfall 0.00 in
Snow Depth Not available.
UV 0 out of 12
Pollen 7.10 out of 12
Air Quality Not available.
Flu Activity Not available.
METAR KDNN 160155Z AUTO 00000KT 7SM SCT080 21/21 A3013 RMK AO2 LTG DSNT NW

More Conditions Fewer Conditions

10-Day Weather Forecast

Almanac

Astronomy

Sep. 15, 2014 Rise Set
Actual Time 7:21 AM EDT 7:45 PM EDT
Civil Twilight 6:55 AM EDT 8:11 PM EDT
Nautical Twilight 6:26 AM EDT 8:40 PM EDT
Astronomical Twilight 5:55 AM EDT 9:11 PM EDT
Moon No Moon Rise 2:08 PM EDT (9/15)
Length of Visible Light 13h 15m
Length of Day
12h 24m
Tomorrow will be 2m 11s shorter.
Waning Gibbous, 50% of the Moon is Illuminated
Today
Waning Gibbous
Sep 24
New
Oct 1
First Quarter
Oct 8
Full
Oct 15
Last Quarter

Today's Extremes

State Highs State Lows

Community

WunderPhotos

Upload Photos

1,753,650 photos uploaded!

WunderBlogs® & News

Nearby

Snow Depth

Station Depth Elevation
No new snow has been reported.

Earthquake Activity

City Distance Mag. Time & Date
No recent earthquake activity has been reported nearby.
Minimum magnitude displayed is 2.5.

Coastal Water Temperatures

Place Temperature
No Stations Reporting

Nearby Weather Stations